sensor_id;sensor_type;location;lat;lon;timestamp;P1;durP1;ratioP1;P2;durP2;ratioP2
11996;SDS011;6058;48.704;9.474;2022-09-03T00:01:13;0.90;;;0.90;;
11996;SDS011;6058;48.704;9.474;2022-09-03T00:03:43;0.90;;;0.90;;
11996;SDS011;6058;48.704;9.474;2022-09-03T00:06:13;2.33;;;1.00;;
11996;SDS011;6058;48.704;9.474;2022-09-03T00:08:43;0.93;;;0.93;;
11996;SDS011;6058;48.704;9.474;2022-09-03T00:11:13;1.93;;;1.10;;
11996;SDS011;6058;48.704;9.474;2022-09-03T00:13:43;0.90;;;0.90;;
11996;SDS011;6058;48.704;9.474;2022-09-03T00:16:11;1.33;;;1.00;;
11996;SDS011;6058;48.704;9.474;2022-09-03T00:18:40;0.90;;;0.80;;
11996;SDS011;6058;48.704;9.474;2022-09-03T00:21:09;2.37;;;1.00;;
11996;SDS011;6058;48.704;9.474;2022-09-03T00:23:39;2.63;;;1.23;;
11996;SDS011;6058;48.704;9.474;2022-09-03T00:26:15;2.03;;;1.10;;
11996;SDS011;6058;48.704;9.474;2022-09-03T00:28:45;1.33;;;1.00;;
11996;SDS011;6058;48.704;9.474;2022-09-03T00:31:13;1.23;;;0.97;;
11996;SDS011;6058;48.704;9.474;2022-09-03T00:33:43;1.87;;;1.20;;
11996;SDS011;6058;48.704;9.474;2022-09-03T00:36:12;1.20;;;1.10;;
11996;SDS011;6058;48.704;9.474;2022-09-03T00:38:42;1.10;;;1.00;;
11996;SDS011;6058;48.704;9.474;2022-09-03T00:41:12;0.93;;;0.93;;
11996;SDS011;6058;48.704;9.474;2022-09-03T00:43:48;2.30;;;1.13;;
11996;SDS011;6058;48.704;9.474;2022-09-03T00:46:21;1.03;;;1.03;;
11996;SDS011;6058;48.704;9.474;2022-09-03T00:48:54;1.10;;;1.00;;
11996;SDS011;6058;48.704;9.474;2022-09-03T00:51:27;1.40;;;1.30;;
11996;SDS011;6058;48.704;9.474;2022-09-03T00:53:59;2.50;;;0.90;;
11996;SDS011;6058;48.704;9.474;2022-09-03T00:56:31;3.13;;;1.13;;
11996;SDS011;6058;48.704;9.474;2022-09-03T00:59:06;1.73;;;1.00;;
11996;SDS011;6058;48.704;9.474;2022-09-03T01:01:39;0.80;;;0.80;;
11996;SDS011;6058;48.704;9.474;2022-09-03T01:04:15;1.23;;;1.00;;
11996;SDS011;6058;48.704;9.474;2022-09-03T01:06:48;1.93;;;1.17;;
11996;SDS011;6058;48.704;9.474;2022-09-03T01:09:25;1.10;;;1.00;;
11996;SDS011;6058;48.704;9.474;2022-09-03T01:11:58;1.10;;;1.10;;
11996;SDS011;6058;48.704;9.474;2022-09-03T01:14:29;1.20;;;1.00;;
11996;SDS011;6058;48.704;9.474;2022-09-03T01:16:59;1.20;;;1.10;;
11996;SDS011;6058;48.704;9.474;2022-09-03T01:19:36;0.90;;;0.90;;
11996;SDS011;6058;48.704;9.474;2022-09-03T01:22:11;2.40;;;1.10;;
11996;SDS011;6058;48.704;9.474;2022-09-03T01:24:57;2.33;;;1.10;;
11996;SDS011;6058;48.704;9.474;2022-09-03T01:27:32;0.80;;;0.80;;
11996;SDS011;6058;48.704;9.474;2022-09-03T01:30:04;1.80;;;1.10;;
11996;SDS011;6058;48.704;9.474;2022-09-03T01:32:34;1.83;;;1.13;;
11996;SDS011;6058;48.704;9.474;2022-09-03T01:35:04;1.20;;;0.73;;
11996;SDS011;6058;48.704;9.474;2022-09-03T01:37:36;1.20;;;1.10;;
11996;SDS011;6058;48.704;9.474;2022-09-03T01:40:08;1.00;;;0.90;;
11996;SDS011;6058;48.704;9.474;2022-09-03T01:42:42;1.53;;;1.00;;
11996;SDS011;6058;48.704;9.474;2022-09-03T01:45:22;2.10;;;1.17;;
11996;SDS011;6058;48.704;9.474;2022-09-03T01:47:56;2.10;;;1.10;;
11996;SDS011;6058;48.704;9.474;2022-09-03T01:50:29;1.63;;;1.13;;
11996;SDS011;6058;48.704;9.474;2022-09-03T01:53:02;1.30;;;1.20;;
11996;SDS011;6058;48.704;9.474;2022-09-03T01:55:32;2.00;;;1.17;;
11996;SDS011;6058;48.704;9.474;2022-09-03T01:58:04;1.00;;;1.00;;
11996;SDS011;6058;48.704;9.474;2022-09-03T02:00:34;0.83;;;0.83;;
11996;SDS011;6058;48.704;9.474;2022-09-03T02:03:05;2.30;;;1.17;;
11996;SDS011;6058;48.704;9.474;2022-09-03T02:05:32;0.80;;;0.80;;
11996;SDS011;6058;48.704;9.474;2022-09-03T02:08:00;1.23;;;1.13;;
11996;SDS011;6058;48.704;9.474;2022-09-03T02:10:29;1.77;;;1.20;;
11996;SDS011;6058;48.704;9.474;2022-09-03T02:12:58;1.00;;;1.00;;
11996;SDS011;6058;48.704;9.474;2022-09-03T02:15:26;1.20;;;1.10;;
11996;SDS011;6058;48.704;9.474;2022-09-03T02:17:56;1.60;;;1.10;;
11996;SDS011;6058;48.704;9.474;2022-09-03T02:20:26;2.23;;;1.10;;
11996;SDS011;6058;48.704;9.474;2022-09-03T02:22:53;1.20;;;1.03;;
11996;SDS011;6058;48.704;9.474;2022-09-03T02:25:22;1.00;;;1.00;;
11996;SDS011;6058;48.704;9.474;2022-09-03T02:27:50;1.10;;;1.00;;
11996;SDS011;6058;48.704;9.474;2022-09-03T02:30:18;0.90;;;0.90;;
11996;SDS011;6058;48.704;9.474;2022-09-03T02:32:45;1.13;;;1.03;;
11996;SDS011;6058;48.704;9.474;2022-09-03T02:35:14;0.93;;;0.93;;
11996;SDS011;6058;48.704;9.474;2022-09-03T02:37:41;1.00;;;1.00;;
11996;SDS011;6058;48.704;9.474;2022-09-03T02:40:08;0.90;;;0.90;;
11996;SDS011;6058;48.704;9.474;2022-09-03T02:42:36;0.90;;;0.90;;
11996;SDS011;6058;48.704;9.474;2022-09-03T02:45:06;1.20;;;1.10;;
11996;SDS011;6058;48.704;9.474;2022-09-03T02:47:36;2.10;;;1.23;;
11996;SDS011;6058;48.704;9.474;2022-09-03T02:50:03;2.23;;;1.23;;
11996;SDS011;6058;48.704;9.474;2022-09-03T02:52:32;1.83;;;1.10;;
11996;SDS011;6058;48.704;9.474;2022-09-03T02:54:59;4.33;;;1.10;;
11996;SDS011;6058;48.704;9.474;2022-09-03T02:57:26;1.03;;;1.00;;
11996;SDS011;6058;48.704;9.474;2022-09-03T02:59:53;1.30;;;0.90;;
11996;SDS011;6058;48.704;9.474;2022-09-03T03:02:20;4.13;;;1.03;;
11996;SDS011;6058;48.704;9.474;2022-09-03T03:04:47;1.10;;;1.10;;
11996;SDS011;6058;48.704;9.474;2022-09-03T03:07:15;1.20;;;1.13;;
11996;SDS011;6058;48.704;9.474;2022-09-03T03:09:43;1.20;;;1.10;;
11996;SDS011;6058;48.704;9.474;2022-09-03T03:12:10;3.53;;;1.10;;
11996;SDS011;6058;48.704;9.474;2022-09-03T03:14:37;1.13;;;1.03;;
11996;SDS011;6058;48.704;9.474;2022-09-03T03:17:04;1.30;;;1.30;;
11996;SDS011;6058;48.704;9.474;2022-09-03T03:19:31;1.40;;;1.30;;
11996;SDS011;6058;48.704;9.474;2022-09-03T03:21:58;1.40;;;1.30;;
11996;SDS011;6058;48.704;9.474;2022-09-03T03:24:26;1.27;;;1.17;;
11996;SDS011;6058;48.704;9.474;2022-09-03T03:26:55;1.10;;;1.10;;
11996;SDS011;6058;48.704;9.474;2022-09-03T03:29:23;1.17;;;1.10;;
11996;SDS011;6058;48.704;9.474;2022-09-03T03:31:50;0.97;;;0.97;;
11996;SDS011;6058;48.704;9.474;2022-09-03T03:34:18;1.23;;;1.10;;
11996;SDS011;6058;48.704;9.474;2022-09-03T03:36:45;1.30;;;1.20;;
11996;SDS011;6058;48.704;9.474;2022-09-03T03:39:12;1.40;;;1.20;;
11996;SDS011;6058;48.704;9.474;2022-09-03T03:41:39;1.97;;;1.20;;
11996;SDS011;6058;48.704;9.474;2022-09-03T03:44:08;1.50;;;0.90;;
11996;SDS011;6058;48.704;9.474;2022-09-03T03:46:36;1.30;;;1.20;;
11996;SDS011;6058;48.704;9.474;2022-09-03T03:49:03;1.57;;;1.03;;
11996;SDS011;6058;48.704;9.474;2022-09-03T03:51:31;1.40;;;1.30;;
11996;SDS011;6058;48.704;9.474;2022-09-03T03:53:58;1.20;;;1.10;;
11996;SDS011;6058;48.704;9.474;2022-09-03T03:56:26;1.07;;;1.07;;
11996;SDS011;6058;48.704;9.474;2022-09-03T03:58:53;0.90;;;0.90;;
11996;SDS011;6058;48.704;9.474;2022-09-03T04:01:22;1.10;;;1.10;;
11996;SDS011;6058;48.704;9.474;2022-09-03T04:03:51;3.00;;;1.13;;
11996;SDS011;6058;48.704;9.474;2022-09-03T04:06:19;1.10;;;1.03;;
11996;SDS011;6058;48.704;9.474;2022-09-03T04:08:47;0.87;;;0.87;;
11996;SDS011;6058;48.704;9.474;2022-09-03T04:11:16;1.17;;;1.10;;
11996;SDS011;6058;48.704;9.474;2022-09-03T04:13:43;1.50;;;1.20;;
11996;SDS011;6058;48.704;9.474;2022-09-03T04:16:11;1.53;;;1.30;;
11996;SDS011;6058;48.704;9.474;2022-09-03T04:18:40;1.30;;;1.20;;
11996;SDS011;6058;48.704;9.474;2022-09-03T04:21:08;1.93;;;1.20;;
11996;SDS011;6058;48.704;9.474;2022-09-03T04:23:37;1.30;;;1.20;;
11996;SDS011;6058;48.704;9.474;2022-09-03T04:26:04;0.80;;;0.80;;
11996;SDS011;6058;48.704;9.474;2022-09-03T04:28:32;1.20;;;1.03;;
11996;SDS011;6058;48.704;9.474;2022-09-03T04:30:59;3.07;;;1.00;;
11996;SDS011;6058;48.704;9.474;2022-09-03T04:33:27;1.57;;;1.30;;
11996;SDS011;6058;48.704;9.474;2022-09-03T04:36:02;2.03;;;1.40;;
11996;SDS011;6058;48.704;9.474;2022-09-03T04:38:30;1.13;;;1.03;;
11996;SDS011;6058;48.704;9.474;2022-09-03T04:40:57;1.00;;;0.90;;
11996;SDS011;6058;48.704;9.474;2022-09-03T04:43:25;1.40;;;1.00;;
11996;SDS011;6058;48.704;9.474;2022-09-03T04:45:54;2.50;;;1.30;;
11996;SDS011;6058;48.704;9.474;2022-09-03T04:48:22;1.80;;;1.20;;
11996;SDS011;6058;48.704;9.474;2022-09-03T04:50:49;1.17;;;1.17;;
11996;SDS011;6058;48.704;9.474;2022-09-03T04:53:17;3.27;;;1.90;;
11996;SDS011;6058;48.704;9.474;2022-09-03T04:55:44;1.30;;;1.20;;
11996;SDS011;6058;48.704;9.474;2022-09-03T04:58:12;1.10;;;1.10;;
11996;SDS011;6058;48.704;9.474;2022-09-03T05:00:39;1.37;;;1.10;;
11996;SDS011;6058;48.704;9.474;2022-09-03T05:03:06;1.50;;;1.33;;
11996;SDS011;6058;48.704;9.474;2022-09-03T05:05:33;1.30;;;1.20;;
11996;SDS011;6058;48.704;9.474;2022-09-03T05:08:00;1.20;;;1.20;;
11996;SDS011;6058;48.704;9.474;2022-09-03T05:10:29;0.90;;;0.90;;
11996;SDS011;6058;48.704;9.474;2022-09-03T05:12:57;1.90;;;1.17;;
11996;SDS011;6058;48.704;9.474;2022-09-03T05:15:24;3.13;;;1.43;;
11996;SDS011;6058;48.704;9.474;2022-09-03T05:17:54;1.90;;;1.57;;
11996;SDS011;6058;48.704;9.474;2022-09-03T05:20:21;2.00;;;1.20;;
11996;SDS011;6058;48.704;9.474;2022-09-03T05:22:49;2.17;;;1.30;;
11996;SDS011;6058;48.704;9.474;2022-09-03T05:25:16;1.40;;;1.30;;
11996;SDS011;6058;48.704;9.474;2022-09-03T05:27:45;2.33;;;1.30;;
11996;SDS011;6058;48.704;9.474;2022-09-03T05:30:12;1.77;;;1.33;;
11996;SDS011;6058;48.704;9.474;2022-09-03T05:32:39;1.37;;;1.27;;
11996;SDS011;6058;48.704;9.474;2022-09-03T05:35:07;2.10;;;1.20;;
11996;SDS011;6058;48.704;9.474;2022-09-03T05:37:34;1.03;;;1.00;;
11996;SDS011;6058;48.704;9.474;2022-09-03T05:40:02;2.47;;;1.27;;
11996;SDS011;6058;48.704;9.474;2022-09-03T05:42:30;1.10;;;1.10;;
11996;SDS011;6058;48.704;9.474;2022-09-03T05:45:04;2.30;;;1.20;;
11996;SDS011;6058;48.704;9.474;2022-09-03T05:47:34;1.87;;;1.53;;
11996;SDS011;6058;48.704;9.474;2022-09-03T05:50:01;1.50;;;1.40;;
11996;SDS011;6058;48.704;9.474;2022-09-03T05:52:28;1.53;;;1.30;;
11996;SDS011;6058;48.704;9.474;2022-09-03T05:54:55;1.90;;;1.30;;
11996;SDS011;6058;48.704;9.474;2022-09-03T05:57:22;2.57;;;1.20;;
11996;SDS011;6058;48.704;9.474;2022-09-03T05:59:50;1.90;;;1.40;;
11996;SDS011;6058;48.704;9.474;2022-09-03T06:02:18;2.73;;;1.40;;
11996;SDS011;6058;48.704;9.474;2022-09-03T06:04:45;3.70;;;1.30;;
11996;SDS011;6058;48.704;9.474;2022-09-03T06:07:13;1.70;;;1.30;;
11996;SDS011;6058;48.704;9.474;2022-09-03T06:09:40;2.80;;;1.47;;
11996;SDS011;6058;48.704;9.474;2022-09-03T06:12:07;2.47;;;1.20;;
11996;SDS011;6058;48.704;9.474;2022-09-03T06:14:34;3.17;;;1.50;;
11996;SDS011;6058;48.704;9.474;2022-09-03T06:17:02;1.83;;;1.37;;
11996;SDS011;6058;48.704;9.474;2022-09-03T06:19:30;1.63;;;1.40;;
11996;SDS011;6058;48.704;9.474;2022-09-03T06:21:57;1.40;;;1.30;;
11996;SDS011;6058;48.704;9.474;2022-09-03T06:24:24;2.07;;;1.60;;
11996;SDS011;6058;48.704;9.474;2022-09-03T06:26:53;1.50;;;1.40;;
11996;SDS011;6058;48.704;9.474;2022-09-03T06:29:21;2.57;;;1.17;;
11996;SDS011;6058;48.704;9.474;2022-09-03T06:31:48;2.40;;;1.43;;
11996;SDS011;6058;48.704;9.474;2022-09-03T06:34:15;5.37;;;1.97;;
11996;SDS011;6058;48.704;9.474;2022-09-03T06:36:44;4.37;;;1.87;;
11996;SDS011;6058;48.704;9.474;2022-09-03T06:39:11;1.97;;;1.60;;
11996;SDS011;6058;48.704;9.474;2022-09-03T06:41:40;1.60;;;1.23;;
11996;SDS011;6058;48.704;9.474;2022-09-03T06:44:07;1.53;;;1.43;;
11996;SDS011;6058;48.704;9.474;2022-09-03T06:46:37;4.10;;;1.80;;
11996;SDS011;6058;48.704;9.474;2022-09-03T06:49:06;1.73;;;1.50;;
11996;SDS011;6058;48.704;9.474;2022-09-03T06:51:35;2.90;;;1.40;;
11996;SDS011;6058;48.704;9.474;2022-09-03T06:54:05;1.77;;;1.33;;
11996;SDS011;6058;48.704;9.474;2022-09-03T06:56:32;5.10;;;1.80;;
11996;SDS011;6058;48.704;9.474;2022-09-03T06:59:03;2.27;;;1.87;;
11996;SDS011;6058;48.704;9.474;2022-09-03T07:01:30;1.70;;;1.60;;
11996;SDS011;6058;48.704;9.474;2022-09-03T07:03:58;1.60;;;1.50;;
11996;SDS011;6058;48.704;9.474;2022-09-03T07:06:26;2.57;;;1.50;;
11996;SDS011;6058;48.704;9.474;2022-09-03T07:08:54;1.90;;;1.37;;
11996;SDS011;6058;48.704;9.474;2022-09-03T07:11:23;3.23;;;1.80;;
11996;SDS011;6058;48.704;9.474;2022-09-03T07:13:52;2.00;;;1.57;;
11996;SDS011;6058;48.704;9.474;2022-09-03T07:16:20;1.90;;;1.30;;
11996;SDS011;6058;48.704;9.474;2022-09-03T07:18:48;2.17;;;1.70;;
11996;SDS011;6058;48.704;9.474;2022-09-03T07:21:16;2.60;;;1.50;;
11996;SDS011;6058;48.704;9.474;2022-09-03T07:23:43;2.00;;;1.70;;
11996;SDS011;6058;48.704;9.474;2022-09-03T07:26:11;2.33;;;1.70;;
11996;SDS011;6058;48.704;9.474;2022-09-03T07:28:40;2.73;;;1.63;;
11996;SDS011;6058;48.704;9.474;2022-09-03T07:31:11;1.90;;;1.80;;
11996;SDS011;6058;48.704;9.474;2022-09-03T07:33:39;1.70;;;1.53;;
11996;SDS011;6058;48.704;9.474;2022-09-03T07:36:07;2.00;;;1.80;;
11996;SDS011;6058;48.704;9.474;2022-09-03T07:38:34;11.43;;;2.57;;
11996;SDS011;6058;48.704;9.474;2022-09-03T07:41:02;1.43;;;1.33;;
11996;SDS011;6058;48.704;9.474;2022-09-03T07:43:32;1.70;;;1.60;;
11996;SDS011;6058;48.704;9.474;2022-09-03T07:46:01;1.57;;;1.47;;
11996;SDS011;6058;48.704;9.474;2022-09-03T07:48:28;2.97;;;1.80;;
11996;SDS011;6058;48.704;9.474;2022-09-03T07:50:57;3.23;;;1.97;;
11996;SDS011;6058;48.704;9.474;2022-09-03T07:53:25;3.90;;;1.73;;
11996;SDS011;6058;48.704;9.474;2022-09-03T07:55:52;2.30;;;1.70;;
11996;SDS011;6058;48.704;9.474;2022-09-03T07:58:20;2.97;;;1.73;;
11996;SDS011;6058;48.704;9.474;2022-09-03T08:00:49;1.80;;;1.70;;
11996;SDS011;6058;48.704;9.474;2022-09-03T08:03:18;2.87;;;1.70;;
11996;SDS011;6058;48.704;9.474;2022-09-03T08:05:45;3.17;;;2.20;;
11996;SDS011;6058;48.704;9.474;2022-09-03T08:08:12;7.83;;;2.30;;
11996;SDS011;6058;48.704;9.474;2022-09-03T08:10:40;3.07;;;1.80;;
11996;SDS011;6058;48.704;9.474;2022-09-03T08:13:07;1.50;;;1.40;;
11996;SDS011;6058;48.704;9.474;2022-09-03T08:15:35;3.40;;;1.80;;
11996;SDS011;6058;48.704;9.474;2022-09-03T08:18:04;1.73;;;1.60;;
11996;SDS011;6058;48.704;9.474;2022-09-03T08:20:32;2.87;;;1.80;;
11996;SDS011;6058;48.704;9.474;2022-09-03T08:23:00;4.00;;;1.87;;
11996;SDS011;6058;48.704;9.474;2022-09-03T08:25:27;2.20;;;1.80;;
11996;SDS011;6058;48.704;9.474;2022-09-03T08:27:57;1.97;;;1.80;;
11996;SDS011;6058;48.704;9.474;2022-09-03T08:30:24;1.83;;;1.70;;
11996;SDS011;6058;48.704;9.474;2022-09-03T08:32:51;2.73;;;2.03;;
11996;SDS011;6058;48.704;9.474;2022-09-03T08:35:19;2.30;;;1.93;;
11996;SDS011;6058;48.704;9.474;2022-09-03T08:37:48;2.77;;;1.70;;
11996;SDS011;6058;48.704;9.474;2022-09-03T08:40:17;1.77;;;1.67;;
11996;SDS011;6058;48.704;9.474;2022-09-03T08:42:48;5.13;;;1.80;;
11996;SDS011;6058;48.704;9.474;2022-09-03T08:45:18;1.90;;;1.70;;
11996;SDS011;6058;48.704;9.474;2022-09-03T08:47:47;2.90;;;1.93;;
11996;SDS011;6058;48.704;9.474;2022-09-03T08:50:16;1.70;;;1.60;;
11996;SDS011;6058;48.704;9.474;2022-09-03T08:52:50;1.70;;;1.60;;
11996;SDS011;6058;48.704;9.474;2022-09-03T08:55:19;1.93;;;1.83;;
11996;SDS011;6058;48.704;9.474;2022-09-03T08:57:48;1.80;;;1.70;;
11996;SDS011;6058;48.704;9.474;2022-09-03T09:00:16;3.77;;;1.70;;
11996;SDS011;6058;48.704;9.474;2022-09-03T09:02:47;2.20;;;1.97;;
11996;SDS011;6058;48.704;9.474;2022-09-03T09:05:20;1.90;;;1.80;;
11996;SDS011;6058;48.704;9.474;2022-09-03T09:07:52;3.30;;;2.23;;
11996;SDS011;6058;48.704;9.474;2022-09-03T09:10:25;1.80;;;1.70;;
11996;SDS011;6058;48.704;9.474;2022-09-03T09:12:57;2.47;;;1.97;;
11996;SDS011;6058;48.704;9.474;2022-09-03T09:15:31;2.67;;;2.00;;
11996;SDS011;6058;48.704;9.474;2022-09-03T09:18:04;2.07;;;1.97;;
11996;SDS011;6058;48.704;9.474;2022-09-03T09:20:34;1.70;;;1.57;;
11996;SDS011;6058;48.704;9.474;2022-09-03T09:23:03;2.70;;;2.10;;
11996;SDS011;6058;48.704;9.474;2022-09-03T09:25:32;2.30;;;2.10;;
11996;SDS011;6058;48.704;9.474;2022-09-03T09:28:07;4.20;;;1.73;;
11996;SDS011;6058;48.704;9.474;2022-09-03T09:30:39;3.07;;;1.70;;
11996;SDS011;6058;48.704;9.474;2022-09-03T09:33:06;2.10;;;2.00;;
11996;SDS011;6058;48.704;9.474;2022-09-03T09:35:33;2.15;;;1.85;;
11996;SDS011;6058;48.704;9.474;2022-09-03T09:38:00;2.57;;;1.80;;
11996;SDS011;6058;48.704;9.474;2022-09-03T09:40:30;2.07;;;1.90;;
11996;SDS011;6058;48.704;9.474;2022-09-03T09:43:02;2.17;;;2.00;;
11996;SDS011;6058;48.704;9.474;2022-09-03T09:45:31;2.30;;;1.80;;
11996;SDS011;6058;48.704;9.474;2022-09-03T09:47:59;3.83;;;1.73;;
11996;SDS011;6058;48.704;9.474;2022-09-03T09:50:27;1.90;;;1.80;;
11996;SDS011;6058;48.704;9.474;2022-09-03T09:53:01;1.70;;;1.60;;
11996;SDS011;6058;48.704;9.474;2022-09-03T09:55:33;2.50;;;1.83;;
11996;SDS011;6058;48.704;9.474;2022-09-03T09:58:06;1.55;;;1.45;;
11996;SDS011;6058;48.704;9.474;2022-09-03T10:00:35;1.80;;;1.70;;
11996;SDS011;6058;48.704;9.474;2022-09-03T10:03:05;2.75;;;1.50;;
11996;SDS011;6058;48.704;9.474;2022-09-03T10:05:33;1.38;;;1.27;;
11996;SDS011;6058;48.704;9.474;2022-09-03T10:08:02;1.73;;;1.60;;
11996;SDS011;6058;48.704;9.474;2022-09-03T10:10:31;1.73;;;1.63;;
11996;SDS011;6058;48.704;9.474;2022-09-03T10:13:03;2.00;;;1.90;;
11996;SDS011;6058;48.704;9.474;2022-09-03T10:15:34;2.00;;;1.90;;
11996;SDS011;6058;48.704;9.474;2022-09-03T10:18:06;1.60;;;1.50;;
11996;SDS011;6058;48.704;9.474;2022-09-03T10:20:35;4.65;;;2.03;;
11996;SDS011;6058;48.704;9.474;2022-09-03T10:23:10;4.50;;;1.73;;
11996;SDS011;6058;48.704;9.474;2022-09-03T10:25:42;1.65;;;1.55;;
11996;SDS011;6058;48.704;9.474;2022-09-03T10:28:15;6.22;;;2.00;;
11996;SDS011;6058;48.704;9.474;2022-09-03T10:30:47;1.73;;;1.60;;
11996;SDS011;6058;48.704;9.474;2022-09-03T10:33:18;1.63;;;1.52;;
11996;SDS011;6058;48.704;9.474;2022-09-03T10:35:51;2.30;;;1.70;;
11996;SDS011;6058;48.704;9.474;2022-09-03T10:38:20;3.15;;;1.80;;
11996;SDS011;6058;48.704;9.474;2022-09-03T10:40:50;1.73;;;1.63;;
11996;SDS011;6058;48.704;9.474;2022-09-03T10:43:25;1.90;;;1.80;;
11996;SDS011;6058;48.704;9.474;2022-09-03T10:45:57;2.00;;;1.50;;
11996;SDS011;6058;48.704;9.474;2022-09-03T10:51:15;1.40;;;1.30;;
11996;SDS011;6058;48.704;9.474;2022-09-03T10:53:57;1.67;;;1.58;;
11996;SDS011;6058;48.704;9.474;2022-09-03T10:56:29;1.77;;;1.67;;
11996;SDS011;6058;48.704;9.474;2022-09-03T10:59:02;2.00;;;1.90;;
11996;SDS011;6058;48.704;9.474;2022-09-03T11:01:34;2.20;;;1.65;;
11996;SDS011;6058;48.704;9.474;2022-09-03T11:06:47;1.75;;;1.45;;
11996;SDS011;6058;48.704;9.474;2022-09-03T11:09:18;2.80;;;2.60;;
11996;SDS011;6058;48.704;9.474;2022-09-03T11:11:48;5.10;;;2.20;;
11996;SDS011;6058;48.704;9.474;2022-09-03T11:14:20;2.00;;;1.70;;
11996;SDS011;6058;48.704;9.474;2022-09-03T11:16:51;2.05;;;1.90;;
11996;SDS011;6058;48.704;9.474;2022-09-03T11:19:21;4.72;;;1.30;;
11996;SDS011;6058;48.704;9.474;2022-09-03T11:21:49;2.38;;;1.77;;
11996;SDS011;6058;48.704;9.474;2022-09-03T11:24:18;1.92;;;1.80;;
11996;SDS011;6058;48.704;9.474;2022-09-03T11:26:48;1.97;;;1.67;;
11996;SDS011;6058;48.704;9.474;2022-09-03T11:29:21;2.33;;;1.48;;
11996;SDS011;6058;48.704;9.474;2022-09-03T11:31:53;4.07;;;2.00;;
11996;SDS011;6058;48.704;9.474;2022-09-03T11:34:27;1.83;;;1.73;;
11996;SDS011;6058;48.704;9.474;2022-09-03T11:37:05;1.93;;;1.83;;
11996;SDS011;6058;48.704;9.474;2022-09-03T11:39:33;1.80;;;1.70;;
11996;SDS011;6058;48.704;9.474;2022-09-03T11:42:02;2.92;;;1.98;;
11996;SDS011;6058;48.704;9.474;2022-09-03T11:44:36;1.83;;;1.73;;
11996;SDS011;6058;48.704;9.474;2022-09-03T11:47:12;2.30;;;1.57;;
11996;SDS011;6058;48.704;9.474;2022-09-03T11:49:43;1.90;;;1.80;;
11996;SDS011;6058;48.704;9.474;2022-09-03T11:52:11;2.57;;;1.90;;
11996;SDS011;6058;48.704;9.474;2022-09-03T11:54:42;1.93;;;1.83;;
11996;SDS011;6058;48.704;9.474;2022-09-03T11:57:11;1.93;;;1.83;;
11996;SDS011;6058;48.704;9.474;2022-09-03T11:59:40;4.40;;;1.93;;
11996;SDS011;6058;48.704;9.474;2022-09-03T12:02:12;1.60;;;1.50;;
11996;SDS011;6058;48.704;9.474;2022-09-03T12:04:44;3.37;;;1.73;;
11996;SDS011;6058;48.704;9.474;2022-09-03T12:07:16;2.00;;;1.90;;
11996;SDS011;6058;48.704;9.474;2022-09-03T12:12:37;3.13;;;1.90;;
11996;SDS011;6058;48.704;9.474;2022-09-03T12:15:13;2.40;;;2.20;;
11996;SDS011;6058;48.704;9.474;2022-09-03T12:17:47;2.00;;;1.80;;
11996;SDS011;6058;48.704;9.474;2022-09-03T12:20:37;2.20;;;2.00;;
11996;SDS011;6058;48.704;9.474;2022-09-03T12:23:05;3.47;;;2.10;;
11996;SDS011;6058;48.704;9.474;2022-09-03T12:25:32;4.20;;;2.03;;
11996;SDS011;6058;48.704;9.474;2022-09-03T12:28:00;2.33;;;2.13;;
11996;SDS011;6058;48.704;9.474;2022-09-03T12:30:30;2.23;;;2.10;;
11996;SDS011;6058;48.704;9.474;2022-09-03T12:33:04;1.90;;;1.37;;
11996;SDS011;6058;48.704;9.474;2022-09-03T12:35:31;1.30;;;1.20;;
11996;SDS011;6058;48.704;9.474;2022-09-03T12:37:58;2.53;;;1.50;;
11996;SDS011;6058;48.704;9.474;2022-09-03T12:40:26;3.80;;;1.50;;
11996;SDS011;6058;48.704;9.474;2022-09-03T12:42:53;4.20;;;1.40;;
11996;SDS011;6058;48.704;9.474;2022-09-03T12:45:21;2.03;;;1.00;;
11996;SDS011;6058;48.704;9.474;2022-09-03T12:47:51;4.03;;;1.47;;
11996;SDS011;6058;48.704;9.474;2022-09-03T12:50:19;2.13;;;1.30;;
11996;SDS011;6058;48.704;9.474;2022-09-03T12:52:47;2.40;;;1.30;;
11996;SDS011;6058;48.704;9.474;2022-09-03T12:55:27;3.10;;;1.20;;
11996;SDS011;6058;48.704;9.474;2022-09-03T12:57:56;4.50;;;1.97;;
11996;SDS011;6058;48.704;9.474;2022-09-03T13:00:26;2.47;;;1.20;;
11996;SDS011;6058;48.704;9.474;2022-09-03T13:02:57;1.43;;;1.07;;
11996;SDS011;6058;48.704;9.474;2022-09-03T13:05:27;2.53;;;1.10;;
11996;SDS011;6058;48.704;9.474;2022-09-03T13:07:57;2.80;;;1.20;;
11996;SDS011;6058;48.704;9.474;2022-09-03T13:10:28;2.83;;;1.30;;
11996;SDS011;6058;48.704;9.474;2022-09-03T13:12:57;6.17;;;1.37;;
11996;SDS011;6058;48.704;9.474;2022-09-03T13:15:24;1.43;;;1.10;;
11996;SDS011;6058;48.704;9.474;2022-09-03T13:17:56;1.93;;;1.20;;
11996;SDS011;6058;48.704;9.474;2022-09-03T13:20:39;1.53;;;1.10;;
11996;SDS011;6058;48.704;9.474;2022-09-03T13:23:14;3.70;;;1.10;;
11996;SDS011;6058;48.704;9.474;2022-09-03T13:25:46;1.17;;;1.13;;
11996;SDS011;6058;48.704;9.474;2022-09-03T13:28:19;1.87;;;1.20;;
11996;SDS011;6058;48.704;9.474;2022-09-03T13:30:52;1.53;;;0.97;;
11996;SDS011;6058;48.704;9.474;2022-09-03T13:33:22;6.03;;;1.57;;
11996;SDS011;6058;48.704;9.474;2022-09-03T13:35:52;2.73;;;1.10;;
11996;SDS011;6058;48.704;9.474;2022-09-03T13:38:23;1.17;;;0.90;;
11996;SDS011;6058;48.704;9.474;2022-09-03T13:40:53;1.63;;;1.00;;
11996;SDS011;6058;48.704;9.474;2022-09-03T13:43:26;1.10;;;0.73;;
11996;SDS011;6058;48.704;9.474;2022-09-03T13:45:56;1.83;;;0.80;;
11996;SDS011;6058;48.704;9.474;2022-09-03T13:48:27;0.50;;;0.50;;
11996;SDS011;6058;48.704;9.474;2022-09-03T13:51:10;0.70;;;0.70;;
11996;SDS011;6058;48.704;9.474;2022-09-03T13:53:41;1.87;;;0.90;;
11996;SDS011;6058;48.704;9.474;2022-09-03T13:56:16;2.53;;;0.90;;
11996;SDS011;6058;48.704;9.474;2022-09-03T13:58:45;2.57;;;0.87;;
11996;SDS011;6058;48.704;9.474;2022-09-03T14:01:14;1.27;;;0.90;;
11996;SDS011;6058;48.704;9.474;2022-09-03T14:03:47;0.97;;;0.70;;
11996;SDS011;6058;48.704;9.474;2022-09-03T14:06:19;1.43;;;0.80;;
11996;SDS011;6058;48.704;9.474;2022-09-03T14:09:00;0.67;;;0.67;;
11996;SDS011;6058;48.704;9.474;2022-09-03T14:11:31;1.50;;;0.70;;
11996;SDS011;6058;48.704;9.474;2022-09-03T14:14:05;1.47;;;0.60;;
11996;SDS011;6058;48.704;9.474;2022-09-03T14:16:38;1.33;;;0.70;;
11996;SDS011;6058;48.704;9.474;2022-09-03T14:19:09;0.80;;;0.50;;
11996;SDS011;6058;48.704;9.474;2022-09-03T14:21:39;1.37;;;0.83;;
11996;SDS011;6058;48.704;9.474;2022-09-03T14:24:09;0.73;;;0.70;;
11996;SDS011;6058;48.704;9.474;2022-09-03T14:26:48;1.63;;;0.70;;
11996;SDS011;6058;48.704;9.474;2022-09-03T14:29:15;0.50;;;0.50;;
11996;SDS011;6058;48.704;9.474;2022-09-03T14:31:58;1.23;;;0.93;;
11996;SDS011;6058;48.704;9.474;2022-09-03T14:34:33;0.43;;;0.43;;
11996;SDS011;6058;48.704;9.474;2022-09-03T14:37:04;0.87;;;0.67;;
11996;SDS011;6058;48.704;9.474;2022-09-03T14:39:36;1.03;;;0.67;;
11996;SDS011;6058;48.704;9.474;2022-09-03T14:42:17;0.50;;;0.50;;
11996;SDS011;6058;48.704;9.474;2022-09-03T14:44:54;0.60;;;0.60;;
11996;SDS011;6058;48.704;9.474;2022-09-03T14:47:29;0.73;;;0.50;;
11996;SDS011;6058;48.704;9.474;2022-09-03T14:50:12;2.03;;;0.50;;
11996;SDS011;6058;48.704;9.474;2022-09-03T14:52:50;0.83;;;0.47;;
11996;SDS011;6058;48.704;9.474;2022-09-03T14:55:24;0.50;;;0.50;;
11996;SDS011;6058;48.704;9.474;2022-09-03T14:57:59;0.97;;;0.50;;
11996;SDS011;6058;48.704;9.474;2022-09-03T15:00:31;0.60;;;0.60;;
11996;SDS011;6058;48.704;9.474;2022-09-03T15:03:02;0.53;;;0.53;;
11996;SDS011;6058;48.704;9.474;2022-09-03T15:05:43;0.70;;;0.70;;
11996;SDS011;6058;48.704;9.474;2022-09-03T15:08:16;0.50;;;0.50;;
11996;SDS011;6058;48.704;9.474;2022-09-03T15:10:49;0.63;;;0.63;;
11996;SDS011;6058;48.704;9.474;2022-09-03T15:13:18;0.60;;;0.50;;
11996;SDS011;6058;48.704;9.474;2022-09-03T15:15:50;1.10;;;0.80;;
11996;SDS011;6058;48.704;9.474;2022-09-03T15:18:23;3.47;;;1.03;;
11996;SDS011;6058;48.704;9.474;2022-09-03T15:20:53;0.70;;;0.70;;
11996;SDS011;6058;48.704;9.474;2022-09-03T15:23:30;0.97;;;0.60;;
11996;SDS011;6058;48.704;9.474;2022-09-03T15:29:02;2.37;;;2.17;;